Time;durP1;ratioP1;P1;durP2;ratioP2;P2;SDS_P1;SDS_P2;PMS_P1;PMS_P2;Temp;Humidity;BMP_temperature;BMP_pressure;BME280_temperature;BME280_humidity;BME280_pressure;Samples;Min_cycle;Max_cycle;Signal;HPM_P1;HPM_P2
2023/04/26 00:01:26;;;;;;;6.67;6.27;;;;;;;2.24;81.21;101372.00;5114091;28;20209;-65
2023/04/26 00:03:52;;;;;;;7.47;6.50;;;;;;;2.23;81.43;101371.16;5113934;28;20177;-65
2023/04/26 00:06:19;;;;;;;7.13;6.70;;;;;;;2.19;81.52;101379.19;5117309;28;20699;-66
2023/04/26 00:08:46;;;;;;;5.17;5.07;;;;;;;2.15;81.59;101378.38;5118076;28;20207;-66
2023/04/26 00:11:12;;;;;;;5.70;5.50;;;;;;;2.09;81.66;101374.16;5117776;28;20189;-66
2023/04/26 00:13:38;;;;;;;6.83;6.23;;;;;;;2.09;81.68;101373.28;5118050;28;20177;-66
2023/04/26 00:16:05;;;;;;;6.83;6.07;;;;;;;2.09;81.83;101373.28;5117889;28;20220;-66
2023/04/26 00:18:32;;;;;;;10.50;6.20;;;;;;;2.02;82.23;101369.94;5117612;28;20659;-66
2023/04/26 00:20:58;;;;;;;9.97;5.80;;;;;;;2.01;82.16;101369.97;5117528;28;20701;-66
2023/04/26 00:23:25;;;;;;;7.77;6.57;;;;;;;2.00;82.36;101376.16;5118194;28;20617;-66
2023/04/26 00:25:51;;;;;;;6.33;6.03;;;;;;;1.97;82.28;101363.03;5117461;28;20728;-66
2023/04/26 00:28:17;;;;;;;9.63;5.97;;;;;;;1.91;82.70;101362.25;5117494;28;20189;-66
2023/04/26 00:30:47;;;;;;;6.13;5.83;;;;;;;1.90;82.76;101357.03;5117479;28;20185;-66
2023/04/26 00:33:14;;;;;;;6.80;6.40;;;;;;;1.89;82.95;101358.81;5099091;28;20288;-66
2023/04/26 00:35:40;;;;;;;6.10;5.63;;;;;;;1.88;82.95;101353.56;5117494;28;20209;-66
2023/04/26 00:38:06;;;;;;;7.27;6.83;;;;;;;1.87;83.14;101355.34;5099095;28;20201;-66
2023/04/26 00:40:34;;;;;;;7.27;6.57;;;;;;;1.88;83.00;101353.56;5117173;28;20288;-66
2023/04/26 00:43:01;;;;;;;6.60;6.00;;;;;;;1.85;83.28;101356.31;5117247;28;20272;-66
2023/04/26 00:45:28;;;;;;;12.50;7.70;;;;;;;1.85;83.54;101358.94;5117365;28;20205;-66
2023/04/26 00:47:55;;;;;;;6.87;6.37;;;;;;;1.82;83.51;101351.06;5082134;28;20197;-66
2023/04/26 00:50:21;;;;;;;7.23;6.53;;;;;;;1.76;83.90;101359.16;5099035;28;20197;-66
2023/04/26 00:52:48;;;;;;;10.93;6.97;;;;;;;1.81;83.61;101352.84;5098808;28;20192;-65
2023/04/26 00:55:15;;;;;;;7.23;6.70;;;;;;;1.78;83.70;101350.31;5117179;28;20707;-65
2023/04/26 00:57:44;;;;;;;11.27;7.13;;;;;;;1.77;83.63;101345.91;5098658;28;20288;-65
2023/04/26 01:00:11;;;;;;;6.43;5.87;;;;;;;1.74;84.19;101351.28;5098578;28;20722;-65
2023/04/26 01:02:37;;;;;;;6.77;6.40;;;;;;;1.75;83.87;101346.84;5098549;28;20558;-65
2023/04/26 01:05:05;;;;;;;9.90;6.83;;;;;;;1.76;83.86;101348.59;5116750;28;20201;-65
2023/04/26 01:07:32;;;;;;;7.80;6.97;;;;;;;1.75;84.62;101350.38;5116723;28;20231;-65
2023/04/26 01:10:03;;;;;;;7.50;7.00;;;;;;;1.75;84.02;101339.81;5098394;28;20238;-65
2023/04/26 01:12:31;;;;;;;8.83;7.07;;;;;;;1.75;83.70;101341.56;5098635;28;20585;-65
2023/04/26 01:15:01;;;;;;;7.93;7.23;;;;;;;1.70;83.91;101349.63;5116776;28;20284;-65
2023/04/26 01:17:28;;;;;;;7.03;6.43;;;;;;;1.68;83.93;101348.81;5115470;28;20181;-65
2023/04/26 01:19:56;;;;;;;6.53;6.03;;;;;;;1.64;83.98;101355.91;5117289;28;20273;-65
2023/04/26 01:22:22;;;;;;;6.73;6.40;;;;;;;1.60;84.26;101353.38;5116964;28;20563;-65
2023/04/26 01:24:50;;;;;;;6.20;6.00;;;;;;;1.52;84.46;101353.59;5098349;28;20194;-66
2023/04/26 01:27:17;;;;;;;7.33;6.73;;;;;;;1.44;84.25;101359.06;5116624;28;20223;-66
2023/04/26 01:29:43;;;;;;;6.40;6.03;;;;;;;1.40;83.78;101357.38;5116365;28;20199;-66
2023/04/26 01:32:10;;;;;;;7.03;6.53;;;;;;;1.35;83.95;101355.75;5116513;28;20187;-66
2023/04/26 01:34:37;;;;;;;7.10;6.47;;;;;;;1.32;85.09;101358.44;5116141;28;20185;-66
2023/04/26 01:37:03;;;;;;;8.03;7.50;;;;;;;1.24;85.17;101359.50;5116441;28;20550;-65
2023/04/26 01:39:30;;;;;;;6.37;5.87;;;;;;;1.25;84.95;101363.03;5097915;28;20192;-65
2023/04/26 01:41:59;;;;;;;6.60;6.23;;;;;;;1.24;85.09;101359.50;5098743;28;20211;-65
2023/04/26 01:44:25;;;;;;;6.53;6.07;;;;;;;1.25;85.10;101363.03;5115999;28;20195;-65
2023/04/26 01:46:52;;;;;;;7.30;6.67;;;;;;;1.30;84.94;101349.72;5115895;28;20207;-65
2023/04/26 01:49:18;;;;;;;8.20;7.70;;;;;;;1.32;85.01;101354.06;5097690;28;20193;-65
2023/04/26 01:51:45;;;;;;;6.70;6.23;;;;;;;1.32;85.70;101356.72;5115890;28;20188;-65
2023/04/26 01:54:12;;;;;;;7.97;7.40;;;;;;;1.33;85.81;101361.06;5097584;28;20203;-65
2023/04/26 01:56:38;;;;;;;8.20;6.43;;;;;;;1.33;85.54;101357.56;5116003;28;20296;-65
2023/04/26 01:59:05;;;;;;;6.53;6.17;;;;;;;1.31;85.84;101364.66;5097417;28;20293;-65
2023/04/26 02:01:31;;;;;;;8.20;7.50;;;;;;;1.25;85.83;101363.03;5097261;28;20217;-65
2023/04/26 02:03:58;;;;;;;7.67;7.07;;;;;;;1.25;86.08;101363.88;5097377;28;20196;-65
2023/04/26 02:06:25;;;;;;;7.20;6.67;;;;;;;1.26;85.46;101364.75;5115770;28;20299;-65
2023/04/26 02:08:52;;;;;;;7.47;6.77;;;;;;;1.30;86.00;101358.50;5097264;28;20381;-65
2023/04/26 02:11:20;;;;;;;10.80;7.30;;;;;;;1.34;85.16;101364.56;5115482;28;20181;-65
2023/04/26 02:13:46;;;;;;;8.03;7.40;;;;;;;1.28;86.05;101368.22;5115480;28;20558;-65
2023/04/26 02:16:14;;;;;;;7.17;6.70;;;;;;;1.26;86.36;101368.25;5115275;28;20211;-65
2023/04/26 02:18:41;;;;;;;7.77;7.07;;;;;;;1.22;85.80;101365.72;5115359;28;20554;-65
2023/04/26 02:21:10;;;;;;;7.07;6.50;;;;;;;1.17;85.75;101357.91;5115243;28;20250;-65
2023/04/26 02:23:37;;;;;;;6.83;6.37;;;;;;;1.11;86.15;101363.34;5115246;28;20193;-65
2023/04/26 02:26:03;;;;;;;7.93;7.20;;;;;;;1.11;86.53;101358.06;5096900;28;20220;-66
2023/04/26 02:28:30;;;;;;;7.97;7.03;;;;;;;1.10;86.38;101368.63;5114860;28;20712;-66
2023/04/26 02:30:57;;;;;;;10.70;7.23;;;;;;;1.08;86.34;101354.59;5115128;28;20268;-65
2023/04/26 02:33:23;;;;;;;6.97;6.60;;;;;;;1.12;85.85;101364.19;5115076;28;20189;-65
2023/04/26 02:35:50;;;;;;;8.77;7.60;;;;;;;1.11;85.90;101360.69;5096621;28;20205;-66
2023/04/26 02:38:17;;;;;;;7.70;7.23;;;;;;;1.12;86.00;101365.06;5096755;28;20228;-66
2023/04/26 02:40:44;;;;;;;13.00;8.40;;;;;;;1.08;86.06;101362.50;5114833;28;20177;-66
2023/04/26 02:43:11;;;;;;;10.57;7.73;;;;;;;1.04;86.21;101367.00;5096655;28;20663;-66
2023/04/26 02:45:42;;;;;;;8.27;7.70;;;;;;;1.01;85.97;101362.66;5096569;28;20243;-66
2023/04/26 02:48:10;;;;;;;7.10;6.73;;;;;;;0.97;86.10;101354.84;5096532;28;20197;-66
2023/04/26 02:50:37;;;;;;;8.30;7.47;;;;;;;0.95;86.60;101354.00;5096530;28;20193;-66
2023/04/26 02:53:04;;;;;;;9.57;8.77;;;;;;;0.84;86.55;101354.25;5096439;28;20190;-65
2023/04/26 02:55:31;;;;;;;7.90;7.43;;;;;;;0.85;87.08;101361.25;5114581;28;20208;-66
2023/04/26 02:57:57;;;;;;;7.67;7.00;;;;;;;0.75;86.05;101359.72;5096319;28;20197;-66
2023/04/26 03:00:24;;;;;;;9.07;8.60;;;;;;;0.73;86.76;101354.47;5096284;28;20220;-65
2023/04/26 03:02:50;;;;;;;8.20;7.27;;;;;;;0.64;86.36;101359.94;5096215;28;20239;-65
2023/04/26 03:05:18;;;;;;;8.13;7.53;;;;;;;0.63;86.35;101345.03;5114796;28;20223;-66
2023/04/26 03:07:45;;;;;;;13.57;8.43;;;;;;;0.66;87.35;101354.66;5096256;28;20211;-66
2023/04/26 03:10:11;;;;;;;10.07;9.00;;;;;;;0.71;86.51;101351.00;5096061;28;20196;-65
2023/04/26 03:12:38;;;;;;;7.67;6.97;;;;;;;0.72;87.53;101347.47;5096005;28;20592;-65
2023/04/26 03:15:05;;;;;;;8.57;7.73;;;;;;;0.75;86.95;101347.41;5114185;28;20607;-66
2023/04/26 03:17:32;;;;;;;10.17;8.10;;;;;;;0.73;86.48;101351.84;5095982;28;20197;-65
2023/04/26 03:19:58;;;;;;;7.77;7.27;;;;;;;0.72;86.97;101350.13;5096255;28;20185;-65
2023/04/26 03:22:28;;;;;;;8.77;8.00;;;;;;;0.64;86.51;101352.88;5114013;28;20209;-65
2023/04/26 03:24:54;;;;;;;14.17;7.27;;;;;;;0.63;86.79;101350.31;5095827;28;20189;-65
2023/04/26 03:27:21;;;;;;;8.57;7.80;;;;;;;0.55;86.38;101349.56;5095911;28;20662;-65
2023/04/26 03:29:47;;;;;;;10.07;8.80;;;;;;;0.57;88.25;101347.78;5114303;28;20665;-65
2023/04/26 03:32:13;;;;;;;10.87;8.73;;;;;;;0.57;87.35;101335.47;5095763;28;20272;-65
2023/04/26 03:34:40;;;;;;;10.63;8.93;;;;;;;0.54;88.45;101346.06;5095649;28;20193;-66
2023/04/26 03:37:06;;;;;;;10.50;7.97;;;;;;;0.55;87.43;101339.94;5096122;28;20281;-66
2023/04/26 03:39:34;;;;;;;10.40;9.40;;;;;;;0.61;88.42;101346.81;5095127;28;20528;-66
2023/04/26 03:42:02;;;;;;;11.77;8.50;;;;;;;0.66;87.35;101349.38;5095772;28;20681;-65
2023/04/26 03:44:29;;;;;;;10.03;9.00;;;;;;;0.69;88.53;101334.34;5113851;28;20172;-65
2023/04/26 03:46:56;;;;;;;12.27;10.13;;;;;;;0.74;88.70;101326.34;5095472;28;20683;-65
2023/04/26 03:49:23;;;;;;;9.97;8.90;;;;;;;0.77;87.94;101329.78;5095453;28;20189;-65
2023/04/26 03:51:49;;;;;;;15.00;9.97;;;;;;;0.78;88.38;101334.16;5095455;28;20254;-65
2023/04/26 03:54:15;;;;;;;11.30;10.07;;;;;;;0.82;89.12;101334.97;5095495;28;20193;-65
2023/04/26 03:56:42;;;;;;;11.33;10.43;;;;;;;0.79;88.19;101332.38;5095375;28;20219;-66
2023/04/26 03:59:08;;;;;;;9.87;8.93;;;;;;;0.76;87.69;101329.81;5113660;28;20198;-66
2023/04/26 04:01:36;;;;;;;12.90;10.50;;;;;;;0.71;88.13;101331.69;5095315;28;20703;-66
2023/04/26 04:04:03;;;;;;;16.50;11.27;;;;;;;0.60;89.25;101330.16;5095435;28;20192;-66
2023/04/26 04:06:31;;;;;;;17.70;10.73;;;;;;;0.55;89.45;101339.03;5095466;28;20235;-66
2023/04/26 04:08:59;;;;;;;13.00;8.70;;;;;;;0.60;88.00;101337.19;5095546;28;20195;-66
2023/04/26 04:11:25;;;;;;;11.20;10.23;;;;;;;0.58;88.00;101337.22;5113510;28;20188;-66
2023/04/26 04:13:52;;;;;;;18.30;10.17;;;;;;;0.52;88.37;101339.97;5113541;28;20271;-66
2023/04/26 04:16:18;;;;;;;14.03;9.97;;;;;;;0.44;88.94;101349.81;5095172;28;20307;-66
2023/04/26 04:18:45;;;;;;;11.00;10.00;;;;;;;0.42;88.51;101344.56;5095259;28;20258;-66
2023/04/26 04:21:11;;;;;;;16.43;8.80;;;;;;;0.43;89.12;101340.16;5095074;28;20659;-65
2023/04/26 04:23:38;;;;;;;10.40;9.50;;;;;;;0.36;88.74;101334.16;5095344;28;20249;-65
2023/04/26 04:26:07;;;;;;;11.23;9.27;;;;;;;0.41;89.21;101341.97;5095346;28;20709;-66
2023/04/26 04:28:34;;;;;;;10.07;9.13;;;;;;;0.40;88.01;101342.84;5095123;28;20196;-66
2023/04/26 04:31:00;;;;;;;11.20;9.47;;;;;;;0.42;88.44;101339.28;5113421;28;20187;-66
2023/04/26 04:33:27;;;;;;;15.73;10.13;;;;;;;0.41;89.59;101341.97;5113409;28;20180;-66
2023/04/26 04:35:55;;;;;;;11.00;9.90;;;;;;;0.44;89.58;101347.16;5094949;28;20681;-66
2023/04/26 04:38:22;;;;;;;15.80;10.37;;;;;;;0.44;89.10;101343.69;5095850;28;20543;-66
2023/04/26 04:40:49;;;;;;;12.23;11.07;;;;;;;0.45;88.25;101346.25;5095391;28;20592;-65
2023/04/26 04:43:17;;;;;;;18.37;10.60;;;;;;;0.47;89.19;101347.09;5094946;28;20209;-65
2023/04/26 04:45:44;;;;;;;29.47;11.77;;;;;;;0.51;89.92;101354.06;5095408;28;20225;-65
2023/04/26 04:48:10;;;;;;;31.13;13.93;;;;;;;0.51;88.32;101354.06;5094856;28;20432;-65
2023/04/26 04:50:38;;;;;;;17.33;12.70;;;;;;;0.53;89.19;101348.78;5096365;28;20943;-65
2023/04/26 04:53:04;;;;;;;11.97;10.77;;;;;;;0.54;88.48;101351.34;5098763;28;20226;-65
2023/04/26 04:55:31;;;;;;;17.63;10.60;;;;;;;0.57;88.82;101358.31;5099228;28;20649;-65
2023/04/26 04:57:57;;;;;;;19.70;11.87;;;;;;;0.60;88.67;101358.28;5098940;28;20192;-65
2023/04/26 05:00:24;;;;;;;12.70;11.23;;;;;;;0.66;89.68;101359.91;5098734;28;20599;-65
2023/04/26 05:03:01;;;;;;;22.57;11.57;;;;;;;0.75;89.23;101357.97;5099200;28;20204;-65
2023/04/26 05:05:28;;;;;;;16.47;12.40;;;;;;;0.87;89.07;101362.09;5098496;28;20216;-65
2023/04/26 05:07:55;;;;;;;22.90;13.07;;;;;;;0.92;89.76;101367.28;5098522;28;20678;-65
2023/04/26 05:10:21;;;;;;;20.77;12.27;;;;;;;1.00;90.10;101354.78;5098427;28;20199;-65
2023/04/26 05:12:48;;;;;;;21.83;12.63;;;;;;;1.08;90.29;101366.03;5098414;28;20647;-65
2023/04/26 05:15:14;;;;;;;20.40;13.73;;;;;;;1.19;89.88;101371.06;5098211;28;20216;-65
2023/04/26 05:17:41;;;;;;;18.37;12.73;;;;;;;1.26;89.85;101368.25;5117104;28;20276;-65
2023/04/26 05:20:14;;;;;;;23.07;12.27;;;;;;;1.37;89.57;101378.56;5098433;28;20181;-65
2023/04/26 05:22:41;;;;;;;18.40;13.10;;;;;;;1.42;90.37;101381.09;5098185;28;20208;-65
2023/04/26 05:25:09;;;;;;;17.57;13.07;;;;;;;1.52;89.41;101381.75;5098043;28;20300;-65
2023/04/26 05:27:36;;;;;;;27.43;13.43;;;;;;;1.59;89.75;101386.84;5098313;28;20622;-65
2023/04/26 05:30:12;;;;;;;21.97;13.53;;;;;;;1.65;89.74;101381.44;5098063;28;20196;-65
2023/04/26 05:32:57;;;;;;;19.03;14.03;;;;;;;1.75;89.49;101387.34;5098125;28;20177;-65
2023/04/26 05:35:33;;;;;;;20.80;14.47;;;;;;;1.85;89.90;101393.28;5098055;28;20212;-65
2023/04/26 05:37:59;;;;;;;25.93;15.10;;;;;;;1.92;89.28;101397.50;5097823;28;20296;-65
2023/04/26 05:40:25;;;;;;;18.93;14.77;;;;;;;1.99;89.10;101395.53;5097820;28;20238;-65
2023/04/26 05:42:52;;;;;;;24.10;15.33;;;;;;;2.07;89.34;101390.94;5098388;28;20209;-65
2023/04/26 05:45:18;;;;;;;24.60;14.67;;;;;;;2.18;89.14;101393.28;5097671;28;20242;-65
2023/04/26 05:47:46;;;;;;;23.07;14.93;;;;;;;2.19;88.57;101397.69;5097640;28;20242;-65
2023/04/26 05:50:13;;;;;;;26.17;15.33;;;;;;;2.28;88.31;101400.94;5116086;28;20193;-65
2023/04/26 05:52:39;;;;;;;27.40;15.77;;;;;;;2.33;88.11;101408.75;5097653;28;20193;-65
2023/04/26 05:55:06;;;;;;;28.33;16.50;;;;;;;2.33;87.93;101401.69;5116210;28;20207;-65
2023/04/26 05:57:34;;;;;;;29.37;15.53;;;;;;;2.39;87.83;101410.38;5097778;28;20210;-65
2023/04/26 06:00:04;;;;;;;22.40;14.27;;;;;;;2.51;87.56;101407.38;5115791;28;20217;-65
2023/04/26 06:02:39;;;;;;;19.00;15.17;;;;;;;2.60;87.85;101406.28;5114866;28;20196;-65
2023/04/26 06:05:11;;;;;;;19.43;15.03;;;;;;;2.72;87.37;101413.84;5097643;28;20679;-65
2023/04/26 06:07:38;;;;;;;29.30;14.80;;;;;;;2.79;87.53;101410.13;5097280;28;20197;-65
2023/04/26 06:10:04;;;;;;;23.43;14.80;;;;;;;2.86;87.66;101416.13;5116163;28;20196;-65
2023/04/26 06:12:31;;;;;;;33.73;15.27;;;;;;;2.95;87.63;101410.56;5097393;28;20189;-65
2023/04/26 06:14:58;;;;;;;35.57;16.37;;;;;;;3.03;87.39;101408.53;5097049;28;20213;-66
2023/04/26 06:17:27;;;;;;;31.87;15.87;;;;;;;3.16;86.11;101407.28;5097972;28;20193;-65
2023/04/26 06:19:53;;;;;;;22.63;15.83;;;;;;;3.26;85.75;101404.38;5097663;28;20578;-65
2023/04/26 06:22:20;;;;;;;29.80;15.70;;;;;;;3.37;86.11;101420.75;5096992;28;20248;-65
2023/04/26 06:24:46;;;;;;;20.90;14.97;;;;;;;3.50;86.17;101424.78;5096983;28;20213;-65
2023/04/26 06:27:13;;;;;;;29.73;15.37;;;;;;;3.60;85.81;101423.56;5115412;28;20685;-65
2023/04/26 06:29:44;;;;;;;20.53;16.63;;;;;;;3.72;85.36;101427.59;5097500;28;20197;-65
2023/04/26 06:32:10;;;;;;;26.27;15.60;;;;;;;3.90;85.25;101419.97;5097400;28;20321;-65
2023/04/26 06:34:37;;;;;;;27.73;16.50;;;;;;;4.03;85.16;101418.66;5096736;28;20222;-65
2023/04/26 06:37:04;;;;;;;22.67;16.43;;;;;;;4.17;84.77;101426.16;5097525;28;20221;-65
2023/04/26 06:39:31;;;;;;;24.90;15.73;;;;;;;4.32;84.36;101428.28;5096728;28;20190;-65
2023/04/26 06:41:58;;;;;;;21.00;14.67;;;;;;;4.43;83.28;101430.53;5096794;28;20242;-65
2023/04/26 06:44:35;;;;;;;20.00;13.83;;;;;;;4.59;82.87;101433.53;5096916;28;20189;-65
2023/04/26 06:47:03;;;;;;;25.53;12.47;;;;;;;4.76;81.38;101427.59;5096471;28;20191;-66
2023/04/26 06:49:30;;;;;;;18.90;13.37;;;;;;;4.94;80.84;101424.28;5115281;28;20165;-66
2023/04/26 06:51:57;;;;;;;17.97;11.97;;;;;;;5.03;79.03;101429.25;5114930;28;20561;-66
2023/04/26 06:54:27;;;;;;;19.30;11.83;;;;;;;5.18;79.36;101430.47;5115396;28;20580;-66
2023/04/26 06:56:54;;;;;;;20.20;12.00;;;;;;;5.20;77.78;101430.41;5114507;28;20691;-66
2023/04/26 06:59:21;;;;;;;20.90;12.47;;;;;;;5.27;77.65;101421.28;5115140;28;20184;-66
2023/04/26 07:01:47;;;;;;;21.60;13.57;;;;;;;5.41;77.92;101412.75;5114421;28;20554;-66
2023/04/26 07:04:15;;;;;;;15.03;11.73;;;;;;;5.58;77.94;101407.66;5114740;28;20180;-66
2023/04/26 07:06:43;;;;;;;17.67;11.40;;;;;;;5.73;77.05;101420.31;5114360;28;20275;-66
2023/04/26 07:09:09;;;;;;;14.17;10.97;;;;;;;5.78;76.05;101414.81;5114973;28;20257;-66
2023/04/26 07:11:35;;;;;;;13.23;8.77;;;;;;;5.87;76.37;101409.13;5114898;28;20189;-66
2023/04/26 07:14:03;;;;;;;11.20;9.57;;;;;;;5.93;75.59;101416.84;5114316;28;20720;-66
2023/04/26 07:16:29;;;;;;;22.87;11.23;;;;;;;6.03;76.42;101421.81;5114575;28;20212;-66
2023/04/26 07:18:58;;;;;;;9.83;8.13;;;;;;;6.03;74.13;101421.81;5113629;28;20275;-66
2023/04/26 07:21:28;;;;;;;19.67;9.67;;;;;;;6.02;74.18;101426.28;5114393;28;20203;-66
2023/04/26 07:23:55;;;;;;;10.03;8.10;;;;;;;6.10;74.33;101423.28;5114328;28;20215;-66
2023/04/26 07:26:22;;;;;;;9.27;8.40;;;;;;;6.23;74.46;101429.84;5113908;28;20199;-66
2023/04/26 07:28:52;;;;;;;9.83;8.97;;;;;;;6.48;73.06;101426.13;5114306;28;20184;-66
2023/04/26 07:31:19;;;;;;;12.27;9.47;;;;;;;6.75;72.36;101424.03;5114529;28;20639;-66
2023/04/26 07:33:45;;;;;;;6.23;5.83;;;;;;;6.76;71.13;101420.44;5114272;28;20210;-66
2023/04/26 07:36:12;;;;;;;10.00;7.33;;;;;;;6.73;70.79;101429.44;5113880;28;20629;-66
2023/04/26 07:38:38;;;;;;;12.13;6.43;;;;;;;6.70;70.83;101418.91;5113907;28;20264;-66
2023/04/26 07:41:05;;;;;;;9.00;7.90;;;;;;;6.79;69.56;101431.81;5114185;28;20521;-66
2023/04/26 07:43:31;;;;;;;15.47;7.57;;;;;;;6.95;70.46;101432.00;5113770;28;20205;-66
2023/04/26 07:46:01;;;;;;;12.93;6.80;;;;;;;7.15;69.78;101420.41;5113784;28;20201;-66
2023/04/26 07:48:28;;;;;;;16.23;7.40;;;;;;;7.26;68.14;101419.06;5114009;28;20201;-66
2023/04/26 07:50:54;;;;;;;6.87;6.27;;;;;;;7.25;66.33;101412.84;5114265;28;20199;-66
2023/04/26 07:53:21;;;;;;;10.17;7.03;;;;;;;7.31;68.07;101417.06;5113752;28;20183;-66
2023/04/26 07:55:50;;;;;;;12.40;6.23;;;;;;;7.16;66.93;101426.59;5113628;28;20204;-66
2023/04/26 07:58:18;;;;;;;5.60;5.17;;;;;;;6.89;65.65;101426.94;5113677;28;20181;-66
2023/04/26 08:00:44;;;;;;;6.20;5.20;;;;;;;6.89;65.69;101421.59;5113937;28;20191;-66
2023/04/26 08:03:14;;;;;;;6.60;6.20;;;;;;;7.02;66.86;101421.94;5113586;28;20701;-66
2023/04/26 08:05:40;;;;;;;6.20;5.03;;;;;;;7.14;65.27;101415.19;5113559;28;20243;-66
2023/04/26 08:08:07;;;;;;;6.33;5.47;;;;;;;7.32;65.42;101410.78;5113547;28;20173;-66
2023/04/26 08:10:34;;;;;;;5.63;5.30;;;;;;;7.49;62.74;101415.31;5113837;28;20564;-66
2023/04/26 08:13:02;;;;;;;6.20;5.80;;;;;;;7.63;63.67;101418.16;5114075;28;20639;-66
2023/04/26 08:15:28;;;;;;;6.23;5.67;;;;;;;7.57;61.69;101416.69;5114016;28;20209;-66
2023/04/26 08:17:55;;;;;;;8.80;5.90;;;;;;;7.42;61.82;101412.94;5113504;28;20265;-66
2023/04/26 08:20:21;;;;;;;5.77;5.30;;;;;;;7.36;62.24;101413.22;5114072;28;20646;-66
2023/04/26 08:22:48;;;;;;;6.47;4.30;;;;;;;7.32;63.98;101411.63;5113397;28;20224;-66
2023/04/26 08:25:14;;;;;;;4.73;4.63;;;;;;;7.26;64.74;101408.41;5113613;28;20230;-66
2023/04/26 08:27:42;;;;;;;5.70;4.80;;;;;;;7.11;63.40;101410.88;5117302;28;20222;-65
2023/04/26 08:30:08;;;;;;;6.27;5.17;;;;;;;7.01;61.08;101414.84;5117767;28;20190;-65
2023/04/26 08:32:35;;;;;;;5.53;5.43;;;;;;;7.30;63.82;101410.84;5117420;28;20268;-66
2023/04/26 08:35:01;;;;;;;7.87;5.47;;;;;;;7.35;63.29;101414.19;5117349;28;20239;-66
2023/04/26 08:37:28;;;;;;;6.33;5.77;;;;;;;7.33;63.16;101415.19;5117358;28;20182;-66
2023/04/26 08:39:54;;;;;;;5.47;5.23;;;;;;;7.22;63.36;101413.88;5117790;28;20181;-66
2023/04/26 08:42:25;;;;;;;5.23;4.67;;;;;;;7.18;63.35;101417.63;5117111;28;20224;-66
2023/04/26 08:44:52;;;;;;;5.37;4.90;;;;;;;7.19;64.72;101423.81;5117759;28;20179;-66
2023/04/26 08:47:37;;;;;;;6.03;5.50;;;;;;;7.22;63.29;101423.66;5117423;28;20639;-66
2023/04/26 08:50:05;;;;;;;13.37;5.87;;;;;;;7.22;63.68;101415.69;5117748;28;20219;-66
2023/04/26 08:52:31;;;;;;;5.50;5.10;;;;;;;7.19;62.84;101418.50;5117041;28;20181;-66
2023/04/26 08:54:59;;;;;;;5.13;4.87;;;;;;;7.17;64.07;101425.69;5116965;28;20212;-66
2023/04/26 08:57:26;;;;;;;4.63;4.33;;;;;;;7.31;61.94;101422.38;5117174;28;20275;-66
2023/04/26 08:59:56;;;;;;;6.00;5.10;;;;;;;7.31;62.93;101415.25;5116918;28;20192;-66
2023/04/26 09:02:23;;;;;;;4.87;4.67;;;;;;;7.39;63.16;101425.53;5116771;28;20205;-66
2023/04/26 09:04:50;;;;;;;5.30;4.97;;;;;;;7.31;61.47;101419.72;5117333;28;20189;-66
2023/04/26 09:07:28;;;;;;;6.63;5.80;;;;;;;7.41;63.77;101423.66;5116775;28;20181;-66
2023/04/26 09:09:57;;;;;;;4.87;4.63;;;;;;;7.52;62.68;101424.03;5117055;28;20228;-66
2023/04/26 09:12:24;;;;;;;5.60;5.30;;;;;;;7.59;61.50;101419.25;5116688;28;20278;-66
2023/04/26 09:14:50;;;;;;;6.30;5.67;;;;;;;7.79;61.20;101426.28;5116543;28;20187;-66
2023/04/26 09:17:24;;;;;;;7.10;5.37;;;;;;;7.97;58.62;101420.03;5116851;28;20184;-66
2023/04/26 09:19:50;;;;;;;6.30;5.03;;;;;;;8.22;60.41;101419.69;5116605;28;20181;-66
2023/04/26 09:22:47;;;;;;;4.70;4.20;;;;;;;8.40;58.68;101415.22;5116773;28;20195;-66
2023/04/26 09:25:16;;;;;;;4.50;4.10;;;;;;;8.25;55.80;101419.50;5099650;28;20230;-66
2023/04/26 09:27:43;;;;;;;4.47;4.33;;;;;;;8.18;56.67;101423.44;5116516;28;20547;-66
2023/04/26 09:30:17;;;;;;;4.47;4.20;;;;;;;8.05;54.93;101425.88;5116370;28;20189;-66
2023/04/26 09:32:48;;;;;;;5.07;4.77;;;;;;;7.91;56.51;101417.69;5116557;28;20193;-66
2023/04/26 09:35:27;;;;;;;5.77;4.53;;;;;;;7.88;58.51;101429.38;5116172;28;20208;-66
2023/04/26 09:37:57;;;;;;;5.43;4.83;;;;;;;7.65;58.04;101432.28;5115347;28;20513;-66
2023/04/26 09:40:30;;;;;;;4.23;3.93;;;;;;;7.54;57.87;101432.81;5116133;28;20172;-66
2023/04/26 09:43:06;;;;;;;6.40;4.23;;;;;;;7.57;58.89;101424.66;5116269;28;20563;-66
2023/04/26 09:45:52;;;;;;;4.43;4.20;;;;;;;7.59;60.44;101433.47;5116140;28;20216;-66
2023/04/26 09:48:24;;;;;;;3.93;3.83;;;;;;;7.66;59.04;101429.56;5116564;28;20230;-66
2023/04/26 09:50:53;;;;;;;6.93;4.40;;;;;;;7.73;57.60;101421.25;5116225;28;20214;-66
2023/04/26 09:53:33;;;;;;;4.80;4.43;;;;;;;7.83;56.85;101415.41;5116476;28;20177;-66
2023/04/26 09:56:10;;;;;;;4.07;3.97;;;;;;;8.08;58.32;101409.69;5116372;28;20206;-66
2023/04/26 09:58:38;;;;;;;4.50;4.30;;;;;;;8.21;55.78;101407.28;5116023;28;20189;-66
2023/04/26 10:01:09;;;;;;;5.33;5.17;;;;;;;8.21;57.96;101401.97;5116282;28;20654;-66
2023/04/26 10:03:36;;;;;;;5.40;4.97;;;;;;;8.23;53.61;101404.53;5115718;28;20197;-66
2023/04/26 10:06:03;;;;;;;4.87;4.67;;;;;;;8.27;57.66;101403.44;5116010;28;20249;-66
2023/04/26 10:08:31;;;;;;;4.00;3.87;;;;;;;8.32;52.97;101401.38;5116125;28;20185;-66
2023/04/26 10:11:00;;;;;;;4.43;4.07;;;;;;;8.38;53.28;101403.75;5115539;28;20228;-66
2023/04/26 10:13:27;;;;;;;12.40;5.17;;;;;;;8.28;57.30;101403.38;5115738;28;20173;-66
2023/04/26 10:15:55;;;;;;;6.10;4.77;;;;;;;8.24;57.51;101401.78;5115437;28;20222;-66
2023/04/26 10:18:21;;;;;;;5.23;5.13;;;;;;;8.29;55.45;101409.56;5115348;28;20283;-66
2023/04/26 10:20:52;;;;;;;4.90;4.63;;;;;;;8.15;57.11;101402.25;5115334;28;20189;-66
2023/04/26 10:23:21;;;;;;;5.07;4.87;;;;;;;8.05;56.50;101409.00;5115811;28;20635;-65
2023/04/26 10:25:48;;;;;;;6.80;6.20;;;;;;;7.99;57.94;101409.28;5115401;28;20640;-66
2023/04/26 10:28:15;;;;;;;6.07;5.87;;;;;;;7.96;58.96;101407.66;5115190;28;20675;-66
2023/04/26 10:30:55;;;;;;;6.83;5.67;;;;;;;8.03;58.44;101398.41;5115425;28;20193;-66
2023/04/26 10:33:23;;;;;;;5.43;5.33;;;;;;;8.13;58.58;101398.78;5115649;28;20701;-66
2023/04/26 10:36:11;;;;;;;6.00;5.10;;;;;;;8.22;57.58;101398.34;5115283;28;20219;-66
2023/04/26 10:38:39;;;;;;;5.10;4.67;;;;;;;8.28;58.91;101400.69;5115592;28;20223;-66
2023/04/26 10:41:29;;;;;;;5.27;4.93;;;;;;;8.31;55.72;101402.34;5115178;28;20192;-66
2023/04/26 10:43:55;;;;;;;4.33;4.23;;;;;;;8.34;56.45;101395.97;5114823;28;20208;-66
2023/04/26 10:46:38;;;;;;;4.40;4.17;;;;;;;8.35;55.27;101395.88;5114798;28;20292;-66
2023/04/26 10:49:16;;;;;;;5.40;4.90;;;;;;;8.36;56.68;101392.28;5114459;28;20209;-66
2023/04/26 10:52:10;;;;;;;4.17;4.07;;;;;;;8.29;58.25;101399.75;5114787;28;20181;-66
2023/04/26 10:54:54;;;;;;;3.73;3.60;;;;;;;8.25;59.06;101397.31;5114694;28;20184;-66
2023/04/26 10:57:23;;;;;;;4.50;4.40;;;;;;;8.26;59.10;101399.91;5114590;28;20184;-66
2023/04/26 11:00:09;;;;;;;4.90;4.80;;;;;;;8.19;56.61;101389.59;5114851;28;20215;-66
2023/04/26 11:02:46;;;;;;;6.23;4.43;;;;;;;8.24;58.85;101398.25;5114525;28;20176;-66
2023/04/26 11:05:46;;;;;;;4.90;4.60;;;;;;;8.14;56.59;101395.22;5114469;28;20211;-66
2023/04/26 11:08:18;;;;;;;5.60;5.23;;;;;;;8.13;56.00;101387.28;5115035;28;20550;-66
2023/04/26 11:10:50;;;;;;;5.30;4.77;;;;;;;8.16;55.56;101387.97;5114880;28;20181;-66
2023/04/26 11:13:18;;;;;;;5.53;4.97;;;;;;;8.16;56.93;101387.09;5115050;28;20180;-66
2023/04/26 11:15:45;;;;;;;4.80;4.60;;;;;;;8.17;55.85;101388.84;5114170;28;20591;-66
2023/04/26 11:18:11;;;;;;;5.17;4.97;;;;;;;8.13;56.53;101389.94;5114229;28;20188;-66
2023/04/26 11:20:38;;;;;;;5.10;4.50;;;;;;;8.21;55.46;101385.94;5114500;28;20254;-66
2023/04/26 11:23:07;;;;;;;4.53;4.47;;;;;;;8.32;55.14;101396.06;5114342;28;20181;-66
2023/04/26 11:25:33;;;;;;;5.10;4.93;;;;;;;8.39;56.12;101383.25;5114599;28;20742;-66
2023/04/26 11:28:01;;;;;;;5.73;5.43;;;;;;;8.54;55.24;101385.16;5114162;28;20212;-66
2023/04/26 11:30:30;;;;;;;5.17;5.03;;;;;;;8.66;54.22;101381.81;5114325;28;20182;-66
2023/04/26 11:33:02;;;;;;;7.63;5.80;;;;;;;8.82;53.32;101384.53;5113960;28;20196;-66